createdAt,value
2023-03-22T00:00:57.805Z,1004.23
2023-03-22T00:01:57.771Z,1004.17
2023-03-22T00:02:57.935Z,1004.18
2023-03-22T00:03:57.863Z,1004.15
2023-03-22T00:04:57.757Z,1004.17
2023-03-22T00:05:57.740Z,1004.17
2023-03-22T00:06:57.722Z,1004.16
2023-03-22T00:07:57.705Z,1004.27
2023-03-22T00:08:57.715Z,1004.28
2023-03-22T00:09:57.696Z,1004.29
2023-03-22T00:10:57.686Z,1004.31
2023-03-22T00:11:57.709Z,1004.30
2023-03-22T00:12:57.654Z,1004.30
2023-03-22T00:13:57.643Z,1004.31
2023-03-22T00:14:57.662Z,1004.30
2023-03-22T00:15:57.738Z,1004.28
2023-03-22T00:16:57.619Z,1004.26
2023-03-22T00:17:57.596Z,1004.24
2023-03-22T00:18:57.585Z,1004.23
2023-03-22T00:19:57.578Z,1004.23
2023-03-22T00:20:57.589Z,1004.27
2023-03-22T00:21:57.558Z,1004.23
2023-03-22T00:22:57.559Z,1004.25
2023-03-22T00:23:57.533Z,1004.21
2023-03-22T00:24:57.521Z,1004.21
2023-03-22T00:25:57.529Z,1004.12
2023-03-22T00:26:57.509Z,1004.14
2023-03-22T00:27:57.523Z,1004.13
2023-03-22T00:28:57.494Z,1004.12
2023-03-22T00:29:57.483Z,1004.08
2023-03-22T00:30:57.462Z,1004.14
2023-03-22T00:31:57.466Z,1004.11
2023-03-22T00:32:57.444Z,1004.07
2023-03-22T00:33:57.456Z,1004.06
2023-03-22T00:34:57.411Z,1004.06
2023-03-22T00:35:57.441Z,1004.05
2023-03-22T00:36:57.396Z,1004.05
2023-03-22T00:37:57.379Z,1004.04
2023-03-22T00:38:57.369Z,1003.98
2023-03-22T00:39:57.383Z,1003.95
2023-03-22T00:40:57.350Z,1003.95
2023-03-22T00:41:57.340Z,1003.94
2023-03-22T00:42:57.340Z,1003.95
2023-03-22T00:43:57.349Z,1003.89
2023-03-22T00:44:57.310Z,1003.91
2023-03-22T00:45:57.351Z,1003.92
2023-03-22T00:46:57.293Z,1003.89
2023-03-22T00:47:57.345Z,1003.89
2023-03-22T00:48:57.268Z,1003.88
2023-03-22T00:49:57.260Z,1003.87
2023-03-22T00:50:57.259Z,1003.84
2023-03-22T00:51:57.246Z,1003.86
2023-03-22T00:52:57.240Z,1003.87
2023-03-22T00:53:57.219Z,1003.85
2023-03-22T00:54:57.225Z,1003.80
2023-03-22T00:55:57.198Z,1003.80
2023-03-22T00:56:57.177Z,1003.79
2023-03-22T00:57:57.179Z,1003.78
2023-03-22T00:58:57.170Z,1003.77
2023-03-22T00:59:57.166Z,1003.75
2023-03-22T01:00:57.187Z,1003.72
2023-03-22T01:01:57.118Z,1003.67
2023-03-22T01:02:57.107Z,1003.71
2023-03-22T01:03:57.184Z,1003.66
2023-03-22T01:04:57.095Z,1003.69
2023-03-22T01:05:57.110Z,1003.64
2023-03-22T01:06:57.077Z,1003.61
2023-03-22T01:07:57.081Z,1003.63
2023-03-22T01:08:57.039Z,1003.59
2023-03-22T01:09:57.044Z,1003.62
2023-03-22T01:10:57.019Z,1003.59
2023-03-22T01:11:57.008Z,1003.60
2023-03-22T01:12:57.009Z,1003.60
2023-03-22T01:13:57.036Z,1003.60
2023-03-22T01:14:56.987Z,1003.61
2023-03-22T01:15:57.013Z,1003.60
2023-03-22T01:16:57.043Z,1003.58
2023-03-22T01:17:56.979Z,1003.59
2023-03-22T01:18:56.946Z,1003.59
2023-03-22T01:19:56.919Z,1003.55
2023-03-22T01:20:56.922Z,1003.55
2023-03-22T01:21:56.902Z,1003.55
2023-03-22T01:22:56.889Z,1003.53
2023-03-22T01:23:56.888Z,1003.56
2023-03-22T01:24:56.886Z,1003.53
2023-03-22T01:25:56.871Z,1003.45
2023-03-22T01:26:56.855Z,1003.47
2023-03-22T01:27:56.856Z,1003.44
2023-03-22T01:28:56.830Z,1003.52
2023-03-22T01:29:56.841Z,1003.46
2023-03-22T01:30:56.931Z,1003.45
2023-03-22T01:31:56.833Z,1003.47
2023-03-22T01:32:56.790Z,1003.45
2023-03-22T01:33:56.784Z,1003.46
2023-03-22T01:34:56.762Z,1003.41
2023-03-22T01:35:56.780Z,1003.43
2023-03-22T01:36:56.745Z,1003.40
2023-03-22T01:37:56.746Z,1003.37
2023-03-22T01:38:56.713Z,1003.31
2023-03-22T01:39:56.718Z,1003.32
2023-03-22T01:40:56.713Z,1003.29
2023-03-22T01:41:56.678Z,1003.30
2023-03-22T01:42:56.685Z,1003.31
2023-03-22T01:43:56.677Z,1003.27
2023-03-22T01:44:58.639Z,1003.27
2023-03-22T01:45:56.693Z,1003.36
2023-03-22T01:46:56.652Z,1003.35
2023-03-22T01:47:56.718Z,1003.31
2023-03-22T01:48:56.639Z,1003.34
2023-03-22T01:49:56.604Z,1003.29
2023-03-22T01:50:56.583Z,1003.24
2023-03-22T01:51:56.598Z,1003.20
2023-03-22T01:52:56.563Z,1003.19
2023-03-22T01:53:56.566Z,1003.18
2023-03-22T01:54:56.556Z,1003.19
2023-03-22T01:55:56.536Z,1003.19
2023-03-22T01:56:56.517Z,1003.11
2023-03-22T01:57:56.526Z,1003.15
2023-03-22T01:58:56.509Z,1003.14
2023-03-22T01:59:56.484Z,1003.07
2023-03-22T02:00:56.516Z,1003.08
2023-03-22T02:01:56.466Z,1003.12
2023-03-22T02:02:56.500Z,1003.10
2023-03-22T02:03:56.488Z,1003.14
2023-03-22T02:04:56.434Z,1003.10
2023-03-22T02:05:56.423Z,1003.11
2023-03-22T02:06:56.416Z,1003.10
2023-03-22T02:07:56.419Z,1003.10
2023-03-22T02:08:56.417Z,1003.09
2023-03-22T02:09:56.388Z,1003.08
2023-03-22T02:10:56.380Z,1003.10
2023-03-22T02:11:56.383Z,1003.08
2023-03-22T02:12:56.342Z,1003.10
2023-03-22T02:13:56.370Z,1003.11
2023-03-22T02:14:56.341Z,1003.08
2023-03-22T02:15:56.476Z,1003.03
2023-03-22T02:16:56.301Z,1003.04
2023-03-22T02:17:56.308Z,1003.06
2023-03-22T02:18:56.276Z,1003.02
2023-03-22T02:19:56.314Z,1003.02
2023-03-22T02:20:56.281Z,1003.00
2023-03-22T02:21:56.243Z,1003.02
2023-03-22T02:22:56.255Z,1003.00
2023-03-22T02:23:56.239Z,1002.98
2023-03-22T02:24:56.226Z,1002.96
2023-03-22T02:25:56.222Z,1002.96
2023-03-22T02:26:56.234Z,1002.97
2023-03-22T02:27:56.200Z,1002.95
2023-03-22T02:28:56.183Z,1002.93
2023-03-22T02:29:56.173Z,1002.84
2023-03-22T02:30:56.186Z,1002.86
2023-03-22T02:31:56.150Z,1002.94
2023-03-22T02:32:56.155Z,1002.94
2023-03-22T02:33:56.117Z,1002.95
2023-03-22T02:34:56.120Z,1002.84
2023-03-22T02:35:56.166Z,1002.87
2023-03-22T02:36:56.086Z,1002.93
2023-03-22T02:37:56.073Z,1002.97
2023-03-22T02:38:56.069Z,1002.86
2023-03-22T02:39:56.053Z,1002.87
2023-03-22T02:40:56.062Z,1002.85
2023-03-22T02:41:56.028Z,1002.89
2023-03-22T02:42:56.013Z,1002.90
2023-03-22T02:43:56.006Z,1002.89
2023-03-22T02:44:56.011Z,1002.90
2023-03-22T02:45:55.984Z,1002.80
2023-03-22T02:46:56.107Z,1002.78
2023-03-22T02:47:56.045Z,1002.77
2023-03-22T02:48:55.963Z,1002.76
2023-03-22T02:49:55.949Z,1002.76
2023-03-22T02:50:55.931Z,1002.75
2023-03-22T02:51:55.953Z,1002.86
2023-03-22T02:52:55.929Z,1002.85
2023-03-22T02:53:55.895Z,1002.78
2023-03-22T02:54:55.896Z,1002.73
2023-03-22T02:55:55.904Z,1002.79
2023-03-22T02:56:55.874Z,1002.77
2023-03-22T02:57:55.864Z,1002.77
2023-03-22T02:58:55.849Z,1002.78
2023-03-22T02:59:55.824Z,1002.79
2023-03-22T03:00:55.910Z,1002.82
2023-03-22T03:01:55.871Z,1002.69
2023-03-22T03:02:55.809Z,1002.76
2023-03-22T03:03:55.794Z,1002.75
2023-03-22T03:04:55.792Z,1002.69
2023-03-22T03:05:55.767Z,1002.67
2023-03-22T03:06:55.779Z,1002.72
2023-03-22T03:07:55.779Z,1002.71
2023-03-22T03:08:55.725Z,1002.70
2023-03-22T03:09:55.714Z,1002.69
2023-03-22T03:10:55.724Z,1002.70
2023-03-22T03:11:55.700Z,1002.70
2023-03-22T03:12:55.692Z,1002.73
2023-03-22T03:13:55.675Z,1002.67
2023-03-22T03:14:55.671Z,1002.69
2023-03-22T03:15:55.707Z,1002.67
2023-03-22T03:16:55.655Z,1002.65
2023-03-22T03:17:55.645Z,1002.64
2023-03-22T03:18:55.619Z,1002.65
2023-03-22T03:19:55.639Z,1002.62
2023-03-22T03:20:55.604Z,1002.65
2023-03-22T03:21:55.600Z,1002.65
2023-03-22T03:22:55.584Z,1002.63
2023-03-22T03:23:55.601Z,1002.57
2023-03-22T03:24:55.553Z,1002.56
2023-03-22T03:25:55.567Z,1002.61
2023-03-22T03:26:55.543Z,1002.55
2023-03-22T03:27:55.544Z,1002.56
2023-03-22T03:28:55.512Z,1002.53
2023-03-22T03:29:55.537Z,1002.48
2023-03-22T03:30:55.491Z,1002.54
2023-03-22T03:31:55.565Z,1002.52
2023-03-22T03:32:55.492Z,1002.53
2023-03-22T03:33:55.457Z,1002.52
2023-03-22T03:34:55.456Z,1002.55
2023-03-22T03:35:55.500Z,1002.52
2023-03-22T03:36:55.437Z,1002.52
2023-03-22T03:37:55.423Z,1002.50
2023-03-22T03:38:55.408Z,1002.48
2023-03-22T03:39:55.431Z,1002.52
2023-03-22T03:40:55.398Z,1002.49
2023-03-22T03:41:55.369Z,1002.50
2023-03-22T03:42:55.366Z,1002.48
2023-03-22T03:43:55.366Z,1002.50
2023-03-22T03:44:55.361Z,1002.50
2023-03-22T03:45:55.448Z,1002.52
2023-03-22T03:46:55.332Z,1002.60
2023-03-22T03:47:55.448Z,1002.61
2023-03-22T03:48:55.291Z,1002.57
2023-03-22T03:49:55.288Z,1002.56
2023-03-22T03:50:55.289Z,1002.53
2023-03-22T03:51:55.290Z,1002.54
2023-03-22T03:52:55.263Z,1002.55
2023-03-22T03:53:55.249Z,1002.60
2023-03-22T03:54:55.224Z,1002.60
2023-03-22T03:55:55.258Z,1002.57
2023-03-22T03:56:55.208Z,1002.59
2023-03-22T03:57:55.199Z,1002.57
2023-03-22T03:58:55.199Z,1002.56
2023-03-22T03:59:55.184Z,1002.58
2023-03-22T04:00:55.158Z,1002.67
2023-03-22T04:01:55.199Z,1002.61
2023-03-22T04:02:55.159Z,1002.60
2023-03-22T04:03:55.315Z,1002.58
2023-03-22T04:04:55.135Z,1002.63
2023-03-22T04:05:55.123Z,1002.63
2023-03-22T04:06:55.112Z,1002.58
2023-03-22T04:07:55.107Z,1002.61
2023-03-22T04:08:55.105Z,1002.59
2023-03-22T04:09:55.070Z,1002.59
2023-03-22T04:10:55.065Z,1002.59
2023-03-22T04:11:55.076Z,1002.56
2023-03-22T04:12:55.045Z,1002.57
2023-03-22T04:13:55.034Z,1002.59
2023-03-22T04:14:55.020Z,1002.56
2023-03-22T04:15:55.014Z,1002.53
2023-03-22T04:16:55.015Z,1002.58
2023-03-22T04:17:54.990Z,1002.59
2023-03-22T04:18:54.966Z,1002.65
2023-03-22T04:19:54.981Z,1002.67
2023-03-22T04:20:54.943Z,1002.61
2023-03-22T04:21:54.930Z,1002.66
2023-03-22T04:22:54.922Z,1002.67
2023-03-22T04:23:54.926Z,1002.65
2023-03-22T04:24:54.907Z,1002.68
2023-03-22T04:25:54.886Z,1002.69
2023-03-22T04:26:54.894Z,1002.71
2023-03-22T04:27:54.888Z,1002.68
2023-03-22T04:28:54.861Z,1002.62
2023-03-22T04:29:54.861Z,1002.63
2023-03-22T04:30:55.035Z,1002.58
2023-03-22T04:31:54.845Z,1002.58
2023-03-22T04:32:54.816Z,1002.55
2023-03-22T04:33:54.814Z,1002.54
2023-03-22T04:34:54.807Z,1002.60
2023-03-22T04:35:54.815Z,1002.62
2023-03-22T04:36:54.805Z,1002.66
2023-03-22T04:37:54.754Z,1002.67
2023-03-22T04:38:54.752Z,1002.66
2023-03-22T04:39:54.738Z,1002.63
2023-03-22T04:40:54.721Z,1002.66
2023-03-22T04:41:54.716Z,1002.65
2023-03-22T04:42:54.710Z,1002.64
2023-03-22T04:43:54.716Z,1002.64
2023-03-22T04:44:54.739Z,1002.66
2023-03-22T04:45:54.828Z,1002.66
2023-03-22T04:46:54.661Z,1002.66
2023-03-22T04:47:54.687Z,1002.65
2023-03-22T04:48:54.647Z,1002.64
2023-03-22T04:49:54.650Z,1002.64
2023-03-22T04:50:54.632Z,1002.67
2023-03-22T04:51:54.612Z,1002.61
2023-03-22T04:52:54.603Z,1002.53
2023-03-22T04:53:54.586Z,1002.55
2023-03-22T04:54:54.581Z,1002.55
2023-03-22T04:55:54.570Z,1002.54
2023-03-22T04:56:54.548Z,1002.50
2023-03-22T04:57:54.560Z,1002.43
2023-03-22T04:58:54.528Z,1002.42
2023-03-22T04:59:54.559Z,1002.42
2023-03-22T05:00:54.516Z,1002.41
2023-03-22T05:01:54.645Z,1002.42
2023-03-22T05:02:54.550Z,1002.39
2023-03-22T05:03:54.473Z,1002.41
2023-03-22T05:04:54.462Z,1002.39
2023-03-22T05:05:54.466Z,1002.33
2023-03-22T05:06:54.448Z,1002.39
2023-03-22T05:07:54.431Z,1002.33
2023-03-22T05:08:54.420Z,1002.33
2023-03-22T05:09:54.409Z,1002.43
2023-03-22T05:10:54.395Z,1002.36
2023-03-22T05:11:54.391Z,1002.34
2023-03-22T05:12:54.394Z,1002.31
2023-03-22T05:13:54.385Z,1002.28
2023-03-22T05:14:54.369Z,1002.26
2023-03-22T05:15:54.451Z,1002.26
2023-03-22T05:16:54.333Z,1002.32
2023-03-22T05:17:54.336Z,1002.30
2023-03-22T05:18:54.371Z,1002.30
2023-03-22T05:19:54.310Z,1002.37
2023-03-22T05:20:54.291Z,1002.30
2023-03-22T05:21:54.287Z,1002.44
2023-03-22T05:22:54.276Z,1002.38
2023-03-22T05:23:54.265Z,1002.37
2023-03-22T05:24:54.241Z,1002.36
2023-03-22T05:25:54.259Z,1002.37
2023-03-22T05:26:54.218Z,1002.28
2023-03-22T05:27:54.268Z,1002.33
2023-03-22T05:28:54.230Z,1002.34
2023-03-22T05:29:54.192Z,1002.34
2023-03-22T05:30:56.668Z,1002.34
2023-03-22T05:31:54.275Z,1002.32
2023-03-22T05:32:54.168Z,1002.31
2023-03-22T05:33:54.159Z,1002.26
2023-03-22T05:34:54.154Z,1002.26
2023-03-22T05:35:54.271Z,1002.24
2023-03-22T05:36:54.129Z,1002.24
2023-03-22T05:37:54.104Z,1002.21
2023-03-22T05:38:54.107Z,1002.25
2023-03-22T05:39:54.097Z,1002.19
2023-03-22T05:40:54.081Z,1002.21
2023-03-22T05:41:54.063Z,1002.20
2023-03-22T05:42:54.065Z,1002.15
2023-03-22T05:43:54.076Z,1002.17
2023-03-22T05:44:54.030Z,1002.13
2023-03-22T05:45:54.017Z,1002.18
2023-03-22T05:46:54.088Z,1002.22
2023-03-22T05:47:54.047Z,1002.30
2023-03-22T05:48:53.997Z,1002.29
2023-03-22T05:49:54.007Z,1002.30
2023-03-22T05:50:53.967Z,1002.28
2023-03-22T05:51:53.964Z,1002.29
2023-03-22T05:52:53.977Z,1002.29
2023-03-22T05:53:53.955Z,1002.35
2023-03-22T05:54:53.939Z,1002.38
2023-03-22T05:55:53.922Z,1002.40
2023-03-22T05:56:55.736Z,1002.46
2023-03-22T05:57:53.907Z,1002.49
2023-03-22T05:58:53.887Z,1002.48
2023-03-22T05:59:53.905Z,1002.50
2023-03-22T06:00:53.854Z,1002.47
2023-03-22T06:01:53.911Z,1002.37
2023-03-22T06:02:53.872Z,1002.38
2023-03-22T06:03:53.875Z,1002.32
2023-03-22T06:04:53.873Z,1002.31
2023-03-22T06:05:53.802Z,1002.31
2023-03-22T06:06:53.852Z,1002.23
2023-03-22T06:07:53.811Z,1002.29
2023-03-22T06:08:53.959Z,1002.30
2023-03-22T06:09:53.766Z,1002.32
2023-03-22T06:10:53.780Z,1002.32
2023-03-22T06:11:53.754Z,1002.33
2023-03-22T06:12:53.792Z,1002.34
2023-03-22T06:13:53.753Z,1002.30
2023-03-22T06:14:53.745Z,1002.28
2023-03-22T06:15:53.707Z,1002.29
2023-03-22T06:16:53.824Z,1002.28
2023-03-22T06:18:01.453Z,1002.27
2023-03-22T06:18:53.689Z,1002.31
2023-03-22T06:19:53.680Z,1002.30
2023-03-22T06:20:53.698Z,1002.30
2023-03-22T06:21:53.674Z,1002.30
2023-03-22T06:22:53.624Z,1002.27
2023-03-22T06:23:53.616Z,1002.30
2023-03-22T06:24:53.631Z,1002.33
2023-03-22T06:25:53.617Z,1002.26
2023-03-22T06:26:53.596Z,1002.26
2023-03-22T06:27:53.579Z,1002.29
2023-03-22T06:28:53.606Z,1002.34
2023-03-22T06:29:53.579Z,1002.32
2023-03-22T06:30:53.602Z,1002.36
2023-03-22T06:31:53.518Z,1002.37
2023-03-22T06:32:53.541Z,1002.39
2023-03-22T06:33:55.796Z,1002.30
2023-03-22T06:34:53.516Z,1002.32
2023-03-22T06:35:53.620Z,1002.34
2023-03-22T06:36:53.469Z,1002.39
2023-03-22T06:37:53.500Z,1002.37
2023-03-22T06:38:53.475Z,1002.39
2023-03-22T06:39:53.454Z,1002.38
2023-03-22T06:40:53.437Z,1002.39
2023-03-22T06:41:53.499Z,1002.40
2023-03-22T06:42:53.427Z,1002.37
2023-03-22T06:43:53.426Z,1002.39
2023-03-22T06:44:53.384Z,1002.42
2023-03-22T06:45:53.423Z,1002.39
2023-03-22T06:46:53.376Z,1002.42
2023-03-22T06:47:53.409Z,1002.47
2023-03-22T06:48:53.372Z,1002.49
2023-03-22T06:49:53.348Z,1002.48
2023-03-22T06:50:53.326Z,1002.46
2023-03-22T06:51:53.341Z,1002.41
2023-03-22T06:52:53.327Z,1002.44
2023-03-22T06:53:53.392Z,1002.37
2023-03-22T06:54:53.304Z,1002.41
2023-03-22T06:55:55.265Z,1002.44
2023-03-22T06:56:53.280Z,1002.46
2023-03-22T06:57:53.260Z,1002.41
2023-03-22T06:58:53.277Z,1002.43
2023-03-22T06:59:53.213Z,1002.49
2023-03-22T07:00:53.189Z,1002.46
2023-03-22T07:01:53.246Z,1002.49
2023-03-22T07:02:53.212Z,1002.51
2023-03-22T07:03:53.171Z,1002.45
2023-03-22T07:04:53.168Z,1002.42
2023-03-22T07:05:53.145Z,1002.42
2023-03-22T07:06:53.181Z,1002.44
2023-03-22T07:07:53.190Z,1002.48
2023-03-22T07:08:53.143Z,1002.49
2023-03-22T07:09:53.115Z,1002.52
2023-03-22T07:10:53.098Z,1002.51
2023-03-22T07:11:53.117Z,1002.41
2023-03-22T07:12:53.083Z,1002.49
2023-03-22T07:13:53.090Z,1002.43
2023-03-22T07:14:53.037Z,1002.41
2023-03-22T07:15:53.092Z,1002.36
2023-03-22T07:16:53.068Z,1002.38
2023-03-22T07:17:53.064Z,1002.38
2023-03-22T07:18:53.009Z,1002.31
2023-03-22T07:19:53.004Z,1002.29
2023-03-22T07:20:52.969Z,1002.29
2023-03-22T07:21:53.187Z,1002.27
2023-03-22T07:22:52.962Z,1002.27
2023-03-22T07:23:52.970Z,1002.27
2023-03-22T07:24:57.745Z,1002.27
2023-03-22T07:25:53.933Z,1002.25
2023-03-22T07:26:52.942Z,1002.25
2023-03-22T07:27:52.928Z,1002.30
2023-03-22T07:28:52.907Z,1002.26
2023-03-22T07:29:52.884Z,1002.25
2023-03-22T07:30:52.907Z,1002.21
2023-03-22T07:31:52.997Z,1002.23
2023-03-22T07:32:52.881Z,1002.24
2023-03-22T07:33:52.849Z,1002.19
2023-03-22T07:34:52.826Z,1002.12
2023-03-22T07:35:52.896Z,1002.16
2023-03-22T07:36:52.839Z,1002.12
2023-03-22T07:37:52.839Z,1002.10
2023-03-22T07:38:52.873Z,1002.06
2023-03-22T07:39:52.814Z,1002.06
2023-03-22T07:40:52.790Z,1002.05
2023-03-22T07:41:52.787Z,1002.04
2023-03-22T07:42:54.850Z,1002.05
2023-03-22T07:43:58.256Z,1002.04
2023-03-22T07:44:53.775Z,1002.05
2023-03-22T07:45:52.736Z,1001.94
2023-03-22T07:46:52.990Z,1002.00
2023-03-22T07:47:52.796Z,1001.99
2023-03-22T07:48:52.712Z,1002.00
2023-03-22T07:49:52.715Z,1001.95
2023-03-22T07:50:52.674Z,1001.83
2023-03-22T07:51:52.805Z,1001.92
2023-03-22T07:52:52.622Z,1001.96
2023-03-22T07:53:52.627Z,1001.97
2023-03-22T07:54:52.623Z,1002.00
2023-03-22T07:55:52.650Z,1001.96
2023-03-22T07:56:52.575Z,1002.01
2023-03-22T07:57:52.578Z,1001.95
2023-03-22T07:58:52.629Z,1001.93
2023-03-22T07:59:52.582Z,1001.92
2023-03-22T08:00:52.562Z,1001.88
2023-03-22T08:01:52.723Z,1001.85
2023-03-22T08:02:52.581Z,1001.86
2023-03-22T08:03:52.634Z,1001.80
2023-03-22T08:04:54.505Z,1001.87
2023-03-22T08:05:52.599Z,1001.82
2023-03-22T08:06:52.525Z,1001.84
2023-03-22T08:07:52.461Z,1001.85
2023-03-22T08:08:52.508Z,1001.75
2023-03-22T08:09:52.476Z,1001.80
2023-03-22T08:10:52.466Z,1001.80
2023-03-22T08:11:52.456Z,1001.81
2023-03-22T08:12:52.428Z,1001.84
2023-03-22T08:13:52.433Z,1001.74
2023-03-22T08:14:52.417Z,1001.71
2023-03-22T08:15:52.381Z,1001.81
2023-03-22T08:16:52.764Z,1001.82
2023-03-22T08:17:52.350Z,1001.87
2023-03-22T08:18:53.190Z,1001.77
2023-03-22T08:19:52.357Z,1001.77
2023-03-22T08:20:52.340Z,1001.92
2023-03-22T08:21:52.294Z,1001.77
2023-03-22T08:22:52.326Z,1001.76
2023-03-22T08:23:52.307Z,1001.75
2023-03-22T08:24:52.304Z,1001.79
2023-03-22T08:25:52.286Z,1001.77
2023-03-22T08:26:53.678Z,1001.80
2023-03-22T08:27:52.323Z,1001.86
2023-03-22T08:28:52.241Z,1001.74
2023-03-22T08:29:52.224Z,1001.82
2023-03-22T08:30:52.222Z,1001.78
2023-03-22T08:31:52.287Z,1001.80
2023-03-22T08:32:52.275Z,1001.72
2023-03-22T08:33:52.250Z,1001.80
2023-03-22T08:34:52.160Z,1001.78
2023-03-22T08:35:52.203Z,1001.73
2023-03-22T08:36:52.227Z,1001.73
2023-03-22T08:37:52.189Z,1001.74
2023-03-22T08:38:52.121Z,1001.71
2023-03-22T08:39:52.133Z,1001.75
2023-03-22T08:40:52.094Z,1001.59
2023-03-22T08:41:52.063Z,1001.78
2023-03-22T08:42:52.201Z,1001.72
2023-03-22T08:43:52.094Z,1001.73
2023-03-22T08:44:52.041Z,1001.58
2023-03-22T08:45:52.077Z,1001.85
2023-03-22T08:46:52.010Z,1001.65
2023-03-22T08:47:52.040Z,1001.54
2023-03-22T08:48:52.018Z,1001.76
2023-03-22T08:49:52.026Z,1001.69
2023-03-22T08:50:51.995Z,1001.74
2023-03-22T08:51:52.046Z,1001.73
2023-03-22T08:52:52.000Z,1001.80
2023-03-22T08:53:51.971Z,1001.85
2023-03-22T08:54:51.942Z,1001.79
2023-03-22T08:55:51.998Z,1001.88
2023-03-22T08:56:52.228Z,1001.85
2023-03-22T08:57:51.932Z,1001.80
2023-03-22T08:58:52.638Z,1001.74
2023-03-22T08:59:52.008Z,1001.81
2023-03-22T09:00:52.766Z,1001.76
2023-03-22T09:01:52.007Z,1001.87
2023-03-22T09:02:51.890Z,1001.79
2023-03-22T09:03:51.880Z,1001.73
2023-03-22T09:04:51.835Z,1001.91
2023-03-22T09:05:51.898Z,1001.91
2023-03-22T09:06:51.844Z,1001.58
2023-03-22T09:07:51.793Z,1001.86
2023-03-22T09:08:51.895Z,1001.90
2023-03-22T09:09:52.657Z,1001.54
2023-03-22T09:10:52.369Z,1001.68
2023-03-22T09:11:52.836Z,1001.80
2023-03-22T09:12:51.831Z,1001.72
2023-03-22T09:13:51.958Z,1001.91
2023-03-22T09:14:51.877Z,1001.50
2023-03-22T09:15:51.739Z,1001.26
2023-03-22T09:16:51.764Z,1001.97
2023-03-22T09:17:52.654Z,1001.83
2023-03-22T09:18:51.675Z,1001.76
2023-03-22T09:20:02.735Z,1001.76
2023-03-22T09:20:52.629Z,1001.70
2023-03-22T09:21:51.642Z,1001.66
2023-03-22T09:22:51.644Z,1001.98
2023-03-22T09:23:51.621Z,1001.82
2023-03-22T09:24:51.625Z,1001.75
2023-03-22T09:25:51.619Z,1001.90
2023-03-22T09:26:51.586Z,1001.85
2023-03-22T09:27:51.577Z,1001.74
2023-03-22T09:28:51.617Z,1001.77
2023-03-22T09:29:51.609Z,1001.76
2023-03-22T09:30:51.572Z,1001.71
2023-03-22T09:31:51.585Z,1001.74
2023-03-22T09:32:51.492Z,1001.63
2023-03-22T09:33:51.502Z,1001.75
2023-03-22T09:34:51.533Z,1001.65
2023-03-22T09:35:51.514Z,1001.67
2023-03-22T09:36:52.205Z,1001.69
2023-03-22T09:37:51.465Z,1001.57
2023-03-22T09:38:51.427Z,1001.53
2023-03-22T09:39:51.444Z,1001.64
2023-03-22T09:40:51.464Z,1001.67
2023-03-22T09:41:51.407Z,1001.81
2023-03-22T09:42:51.388Z,1001.02
2023-03-22T09:43:51.462Z,1001.72
2023-03-22T09:44:51.438Z,1001.60
2023-03-22T09:45:51.382Z,1001.64
2023-03-22T09:46:51.460Z,1001.65
2023-03-22T09:47:51.453Z,1001.57
2023-03-22T09:48:51.358Z,1001.55
2023-03-22T09:49:54.062Z,1001.58
2023-03-22T09:50:51.341Z,1001.70
2023-03-22T09:51:51.497Z,1001.56
2023-03-22T09:52:51.275Z,1001.63
2023-03-22T09:53:51.294Z,1001.50
2023-03-22T09:54:53.144Z,1001.51
2023-03-22T09:55:51.258Z,1001.55
2023-03-22T09:56:51.256Z,1001.48
2023-03-22T09:57:51.222Z,1001.58
2023-03-22T09:58:51.258Z,1001.42
2023-03-22T09:59:51.233Z,1001.49
2023-03-22T10:00:51.336Z,1001.39
2023-03-22T10:01:51.415Z,1001.40
2023-03-22T10:02:51.315Z,1001.41
2023-03-22T10:03:51.254Z,1001.36
2023-03-22T10:04:51.164Z,1001.34
2023-03-22T10:05:51.179Z,1001.41
2023-03-22T10:06:51.188Z,1001.38
2023-03-22T10:07:51.104Z,1001.39
2023-03-22T10:08:51.167Z,1001.36
2023-03-22T10:09:51.135Z,1001.34
2023-03-22T10:10:51.123Z,1001.40
2023-03-22T10:11:51.077Z,1001.29
2023-03-22T10:12:51.145Z,1001.29
2023-03-22T10:13:51.066Z,1001.27
2023-03-22T10:14:51.055Z,1001.29
2023-03-22T10:15:51.068Z,1001.19
2023-03-22T10:16:51.060Z,1001.29
2023-03-22T10:17:51.010Z,1001.34
2023-03-22T10:18:51.069Z,1001.43
2023-03-22T10:19:51.133Z,1001.27
2023-03-22T10:20:51.046Z,1001.42
2023-03-22T10:21:50.953Z,1001.40
2023-03-22T10:22:53.219Z,1001.39
2023-03-22T10:23:50.933Z,1001.36
2023-03-22T10:24:50.980Z,1001.34
2023-03-22T10:25:50.938Z,1001.39
2023-03-22T10:26:50.974Z,1001.40
2023-03-22T10:27:50.898Z,1001.32
2023-03-22T10:28:50.926Z,1001.35
2023-03-22T10:29:50.949Z,1001.33
2023-03-22T10:30:50.885Z,1001.21
2023-03-22T10:31:50.949Z,1001.35
2023-03-22T10:32:57.535Z,1001.43
2023-03-22T10:33:52.185Z,1001.24
2023-03-22T10:34:50.814Z,1001.33
2023-03-22T10:35:50.941Z,1001.30
2023-03-22T10:36:50.799Z,1001.22
2023-03-22T10:37:50.816Z,1001.43
2023-03-22T10:38:50.814Z,1001.46
2023-03-22T10:39:50.796Z,1001.21
2023-03-22T10:40:50.793Z,1001.22
2023-03-22T10:41:50.723Z,1001.35
2023-03-22T10:42:50.752Z,1001.34
2023-03-22T10:43:50.722Z,1001.39
2023-03-22T10:44:50.733Z,1001.44
2023-03-22T10:45:51.275Z,1001.39
2023-03-22T10:46:50.844Z,1001.35
2023-03-22T10:47:50.716Z,1001.40
2023-03-22T10:48:50.661Z,1001.49
2023-03-22T10:49:50.635Z,1001.49
2023-03-22T10:50:50.631Z,1001.32
2023-03-22T10:51:50.715Z,1001.33
2023-03-22T10:52:50.641Z,1001.44
2023-03-22T10:53:50.609Z,1001.39
2023-03-22T10:54:50.599Z,1001.39
2023-03-22T10:55:50.585Z,1001.33
2023-03-22T10:56:52.191Z,1001.50
2023-03-22T10:57:50.565Z,1001.48
2023-03-22T10:58:50.635Z,1001.43
2023-03-22T10:59:50.559Z,1001.43
2023-03-22T11:00:50.739Z,1001.51
2023-03-22T11:01:50.724Z,1001.42
2023-03-22T11:02:50.756Z,1001.48
2023-03-22T11:03:50.512Z,1001.31
2023-03-22T11:04:50.514Z,1001.41
2023-03-22T11:05:50.583Z,1001.42
2023-03-22T11:06:50.505Z,1001.40
2023-03-22T11:07:50.474Z,1001.45
2023-03-22T11:08:50.456Z,1001.40
2023-03-22T11:09:50.420Z,1001.47
2023-03-22T11:10:50.564Z,1001.45
2023-03-22T11:11:50.416Z,1001.51
2023-03-22T11:12:50.413Z,1001.49
2023-03-22T11:13:50.379Z,1001.48
2023-03-22T11:14:50.391Z,1001.47
2023-03-22T11:15:50.373Z,1001.53
2023-03-22T11:16:50.452Z,1001.51
2023-03-22T11:17:50.356Z,1001.53
2023-03-22T11:18:50.364Z,1001.54
2023-03-22T11:19:50.500Z,1001.50
2023-03-22T11:20:50.343Z,1001.48
2023-03-22T11:21:50.321Z,1001.51
2023-03-22T11:22:50.282Z,1001.44
2023-03-22T11:23:50.301Z,1001.51
2023-03-22T11:24:50.270Z,1001.29
2023-03-22T11:25:50.271Z,1001.48
2023-03-22T11:26:50.262Z,1001.42
2023-03-22T11:27:50.245Z,1001.45
2023-03-22T11:28:50.231Z,1001.43
2023-03-22T11:29:50.210Z,1001.52
2023-03-22T11:30:50.221Z,1001.45
2023-03-22T11:31:50.271Z,1001.48
2023-03-22T11:32:50.242Z,1001.45
2023-03-22T11:33:50.214Z,1001.43
2023-03-22T11:34:50.175Z,1001.43
2023-03-22T11:35:51.197Z,1001.41
2023-03-22T11:36:50.157Z,1001.45
2023-03-22T11:37:50.110Z,1001.40
2023-03-22T11:38:50.165Z,1001.40
2023-03-22T11:39:50.686Z,1001.35
2023-03-22T11:40:50.075Z,1001.32
2023-03-22T11:41:50.075Z,1001.34
2023-03-22T11:42:50.059Z,1001.34
2023-03-22T11:43:50.985Z,1001.28
2023-03-22T11:44:50.253Z,1001.29
2023-03-22T11:45:50.087Z,1001.23
2023-03-22T11:46:50.038Z,1001.18
2023-03-22T11:47:50.141Z,1001.25
2023-03-22T11:48:50.170Z,1001.27
2023-03-22T11:49:49.995Z,1001.30
2023-03-22T11:50:49.989Z,1001.29
2023-03-22T11:51:49.955Z,1001.35
2023-03-22T11:52:49.983Z,1001.33
2023-03-22T11:53:49.943Z,1001.40
2023-03-22T11:54:49.936Z,1001.32
2023-03-22T11:55:50.036Z,1001.35
2023-03-22T11:56:49.908Z,1001.35
2023-03-22T11:57:49.914Z,1001.45
2023-03-22T11:58:49.901Z,1001.41
2023-03-22T11:59:49.883Z,1001.38
2023-03-22T12:00:49.850Z,1001.36
2023-03-22T12:01:49.900Z,1001.32
2023-03-22T12:02:50.063Z,1001.44
2023-03-22T12:03:49.992Z,1001.44
2023-03-22T12:04:49.866Z,1001.46
2023-03-22T12:05:49.915Z,1001.46